Time;durP1;ratioP1;P1;durP2;ratioP2;P2;SDS_P1;SDS_P2;PMS_P1;PMS_P2;Temp;Humidity;BMP_temperature;BMP_pressure;BME280_temperature;BME280_humidity;BME280_pressure;Samples;Min_cycle;Max_cycle;Signal;HPM_P1;HPM_P2
2023/10/20 00:01:39;;;;;;;;;;;;;;;20.22;58.65;96321.36;603095;235;68853;-69
2023/10/20 00:04:07;;;;;;;;;;;;;;;20.22;58.72;96316.81;603108;235;66621;-69
2023/10/20 00:06:38;;;;;;;;;;;;;;;20.23;58.70;96314.94;603126;235;64778;-67
2023/10/20 00:09:04;;;;;;;;;;;;;;;20.22;58.89;96316.02;604244;234;68845;-69
2023/10/20 00:11:31;;;;;;;;;;;;;;;20.22;57.98;96318.70;605004;234;68778;-68
2023/10/20 00:14:00;;;;;;;;;;;;;;;20.22;59.00;96313.36;604936;234;62418;-68
2023/10/20 00:16:30;;;;;;;;;;;;;;;20.22;59.03;96310.69;605021;234;68832;-68
2023/10/20 00:19:00;;;;;;;;;;;;;;;20.23;59.27;96312.27;605054;233;68985;-68
2023/10/20 00:21:26;;;;;;;;;;;;;;;20.22;58.73;96319.48;604989;234;64813;-68
2023/10/20 00:23:54;;;;;;;;;;;;;;;20.22;58.57;96316.02;605022;234;68759;-68
2023/10/20 00:26:21;;;;;;;;;;;;;;;20.21;58.36;96315.20;605025;234;68079;-68
2023/10/20 00:28:49;;;;;;;;;;;;;;;20.21;59.01;96311.75;604969;234;63438;-68
2023/10/20 00:31:18;;;;;;;;;;;;;;;20.21;59.27;96304.53;605067;234;68492;-68
2023/10/20 00:33:50;;;;;;;;;;;;;;;20.22;58.38;96302.69;605001;234;68548;-67
2023/10/20 00:36:17;;;;;;;;;;;;;;;20.22;58.99;96300.02;605044;231;62699;-67
2023/10/20 00:38:45;;;;;;;;;;;;;;;20.22;58.55;96302.69;605003;234;68661;-67
2023/10/20 00:41:14;;;;;;;;;;;;;;;20.22;58.46;96316.02;604993;234;66120;-67
2023/10/20 00:43:41;;;;;;;;;;;;;;;20.22;59.29;96294.68;605080;234;64726;-67
2023/10/20 00:46:10;;;;;;;;;;;;;;;20.21;58.85;96304.53;605019;234;68147;-67
2023/10/20 00:48:38;;;;;;;;;;;;;;;20.22;58.28;96297.35;605002;234;68809;-67
2023/10/20 00:51:06;;;;;;;;;;;;;;;20.21;58.60;96304.53;608062;233;62376;-67
2023/10/20 00:53:35;;;;;;;;;;;;;;;20.21;58.49;96309.88;608124;233;68776;-67
2023/10/20 00:56:04;;;;;;;;;;;;;;;20.22;58.97;96302.69;608188;233;69468;-68
2023/10/20 00:58:32;;;;;;;;;;;;;;;20.21;58.73;96304.53;608162;233;63614;-68
2023/10/20 01:01:00;;;;;;;;;;;;;;;20.22;59.11;96305.35;608159;233;66910;-68
2023/10/20 01:03:29;;;;;;;;;;;;;;;20.21;58.89;96307.20;608161;233;68628;-68
2023/10/20 01:05:56;;;;;;;;;;;;;;;20.21;58.85;96314.42;608113;233;64799;-69
2023/10/20 01:08:24;;;;;;;;;;;;;;;20.22;59.67;96305.35;608174;233;68814;-69
2023/10/20 01:10:53;;;;;;;;;;;;;;;20.21;59.08;96304.53;608160;233;67260;-69
2023/10/20 01:13:22;;;;;;;;;;;;;;;20.20;59.35;96305.63;608016;233;64770;-69
2023/10/20 01:15:51;;;;;;;;;;;;;;;20.21;59.28;96296.53;608147;233;68929;-69
2023/10/20 01:18:19;;;;;;;;;;;;;;;20.21;59.46;96295.74;608162;233;66677;-69
2023/10/20 01:20:46;;;;;;;;;;;;;;;20.21;59.59;96301.87;608130;233;63403;-69
2023/10/20 01:23:13;;;;;;;;;;;;;;;20.21;59.99;96293.08;608182;233;66522;-69
2023/10/20 01:25:41;;;;;;;;;;;;;;;20.21;59.71;96295.74;608116;233;68842;-69
2023/10/20 01:28:10;;;;;;;;;;;;;;;20.20;58.73;96289.62;608159;233;64908;-69
2023/10/20 01:30:38;;;;;;;;;;;;;;;20.20;59.35;96292.28;608171;233;68839;-69
2023/10/20 01:33:05;;;;;;;;;;;;;;;20.20;59.13;96294.95;608090;233;68679;-69
2023/10/20 01:35:33;;;;;;;;;;;;;;;20.20;59.53;96288.83;608201;233;65593;-69
2023/10/20 01:38:00;;;;;;;;;;;;;;;20.20;58.63;96284.28;608148;233;69071;-69
2023/10/20 01:40:28;;;;;;;;;;;;;;;20.20;58.69;96294.16;608162;233;68390;-69
2023/10/20 01:42:56;;;;;;;;;;;;;;;20.19;58.88;96282.70;608155;233;63533;-68
2023/10/20 01:45:23;;;;;;;;;;;;;;;20.20;58.15;96291.50;608146;233;68759;-69
2023/10/20 01:47:51;;;;;;;;;;;;;;;20.20;59.00;96286.16;608121;233;66657;-69
2023/10/20 01:50:20;;;;;;;;;;;;;;;20.20;59.34;96275.48;608053;233;62448;-69
2023/10/20 01:52:48;;;;;;;;;;;;;;;20.20;59.48;96270.16;607952;233;68832;-68
2023/10/20 01:55:15;;;;;;;;;;;;;;;20.20;59.87;96264.81;607857;233;66257;-69
2023/10/20 01:57:44;;;;;;;;;;;;;;;20.19;59.16;96264.03;602210;233;63602;-67
2023/10/20 02:00:15;;;;;;;;;;;;;;;20.19;58.52;96266.70;607988;233;66738;-67
2023/10/20 02:02:41;;;;;;;;;;;;;;;20.18;58.99;96257.88;607932;233;66427;-67
2023/10/20 02:05:09;;;;;;;;;;;;;;;20.20;60.18;96259.48;607709;233;62370;-69
2023/10/20 02:07:38;;;;;;;;;;;;;;;20.19;59.66;96269.36;607635;233;68541;-69
2023/10/20 02:10:06;;;;;;;;;;;;;;;20.19;59.49;96269.36;608050;233;66343;-68
2023/10/20 02:12:34;;;;;;;;;;;;;;;20.18;59.74;96262.42;607892;233;64871;-67
2023/10/20 02:15:04;;;;;;;;;;;;;;;20.18;59.96;96255.20;602286;233;66976;-67
2023/10/20 02:17:32;;;;;;;;;;;;;;;20.18;59.81;96255.20;607928;233;66597;-68
2023/10/20 02:20:00;;;;;;;;;;;;;;;20.17;59.72;96245.63;608011;233;65220;-67
2023/10/20 02:22:27;;;;;;;;;;;;;;;20.18;59.66;96246.41;608021;233;69416;-68
2023/10/20 02:24:55;;;;;;;;;;;;;;;20.18;59.97;96247.20;607987;233;69407;-68
2023/10/20 02:27:23;;;;;;;;;;;;;;;20.18;59.79;96244.53;607859;233;64934;-69
2023/10/20 02:29:50;;;;;;;;;;;;;;;20.18;60.24;96230.41;607435;233;68631;-69
2023/10/20 02:32:18;;;;;;;;;;;;;;;20.18;59.27;96238.41;608003;233;68658;-69
2023/10/20 02:34:45;;;;;;;;;;;;;;;20.17;59.08;96240.28;608018;233;62456;-69
2023/10/20 02:37:14;;;;;;;;;;;;;;;20.17;59.12;96234.16;607988;233;68976;-69
2023/10/20 02:39:42;;;;;;;;;;;;;;;20.18;59.27;96231.20;607916;233;66270;-68
2023/10/20 02:42:11;;;;;;;;;;;;;;;20.17;59.02;96226.16;607931;233;65165;-68
2023/10/20 02:44:38;;;;;;;;;;;;;;;20.18;59.18;96219.73;607979;233;69574;-68
2023/10/20 02:47:06;;;;;;;;;;;;;;;20.18;59.11;96214.40;608074;233;68918;-69
2023/10/20 02:49:33;;;;;;;;;;;;;;;20.17;59.23;96218.95;607974;232;64800;-68
2023/10/20 02:52:01;;;;;;;;;;;;;;;20.17;59.37;96218.95;608016;233;69214;-68
2023/10/20 02:54:29;;;;;;;;;;;;;;;20.18;59.02;96214.40;607988;233;66191;-69
2023/10/20 02:56:56;;;;;;;;;;;;;;;20.18;60.04;96209.85;607703;233;62444;-69
2023/10/20 02:59:24;;;;;;;;;;;;;;;20.17;58.92;96213.61;607745;233;69345;-69
2023/10/20 03:01:55;;;;;;;;;;;;;;;20.17;58.98;96218.16;607420;233;68940;-69
2023/10/20 03:04:21;;;;;;;;;;;;;;;20.17;59.14;96216.28;607921;233;62600;-69
2023/10/20 03:06:49;;;;;;;;;;;;;;;20.17;59.50;96221.61;607876;233;66327;-69
2023/10/20 03:09:17;;;;;;;;;;;;;;;20.17;59.77;96223.49;608004;233;66445;-69
2023/10/20 03:11:44;;;;;;;;;;;;;;;20.18;59.81;96225.86;608063;233;64766;-69
2023/10/20 03:14:12;;;;;;;;;;;;;;;20.16;59.81;96222.70;607575;233;66361;-69
2023/10/20 03:16:42;;;;;;;;;;;;;;;20.16;59.75;96228.04;608057;233;66685;-69
2023/10/20 03:19:11;;;;;;;;;;;;;;;20.17;59.50;96223.49;607868;233;64922;-69
2023/10/20 03:21:39;;;;;;;;;;;;;;;20.16;59.71;96222.70;608069;233;68546;-68
2023/10/20 03:24:07;;;;;;;;;;;;;;;20.17;59.56;96231.50;608042;233;66648;-68
2023/10/20 03:26:34;;;;;;;;;;;;;;;20.16;60.09;96238.71;607845;233;62628;-68
2023/10/20 03:29:04;;;;;;;;;;;;;;;20.16;60.28;96238.71;607960;233;69193;-68
2023/10/20 03:31:32;;;;;;;;;;;;;;;20.16;59.76;96228.04;607966;233;68615;-68
2023/10/20 03:34:00;;;;;;;;;;;;;;;20.17;59.43;96218.16;608063;233;64589;-68
2023/10/20 03:36:27;;;;;;;;;;;;;;;20.16;59.41;96221.89;608034;233;66388;-68
2023/10/20 03:38:56;;;;;;;;;;;;;;;20.16;59.19;96213.88;608023;233;66352;-69
2023/10/20 03:41:25;;;;;;;;;;;;;;;20.15;58.90;96215.77;608074;233;62361;-69
2023/10/20 03:43:53;;;;;;;;;;;;;;;20.15;59.19;96205.09;608087;233;68793;-68
2023/10/20 03:46:21;;;;;;;;;;;;;;;20.16;59.68;96212.03;607641;233;68585;-68
2023/10/20 03:48:48;;;;;;;;;;;;;;;20.16;59.48;96195.20;607924;232;62427;-68
2023/10/20 03:51:17;;;;;;;;;;;;;;;20.16;59.77;96195.20;603096;235;68755;-68
2023/10/20 03:53:50;;;;;;;;;;;;;;;20.15;58.98;96205.09;603087;235;68698;-68
2023/10/20 03:56:19;;;;;;;;;;;;;;;20.16;59.22;96206.70;603058;235;64862;-69
2023/10/20 03:58:46;;;;;;;;;;;;;;;20.16;59.39;96198.70;603093;235;68946;-69
2023/10/20 04:01:14;;;;;;;;;;;;;;;20.16;59.48;96198.70;603053;235;66256;-69
2023/10/20 04:03:44;;;;;;;;;;;;;;;20.16;60.04;96196.03;603090;235;64822;-69
2023/10/20 04:06:11;;;;;;;;;;;;;;;20.16;58.68;96189.87;603037;235;69079;-69
2023/10/20 04:08:39;;;;;;;;;;;;;;;20.15;59.86;96183.75;603088;235;68455;-69
2023/10/20 04:11:06;;;;;;;;;;;;;;;20.15;59.78;96194.42;603123;235;64605;-69
2023/10/20 04:13:35;;;;;;;;;;;;;;;20.16;59.69;96195.20;603021;235;68643;-69
2023/10/20 04:16:12;;;;;;;;;;;;;;;20.16;60.28;96188.02;603032;235;69088;-69
2023/10/20 04:18:41;;;;;;;;;;;;;;;20.16;60.04;96189.87;603086;235;64790;-68
2023/10/20 04:21:13;;;;;;;;;;;;;;;20.16;59.15;96189.87;602925;235;68952;-67
2023/10/20 04:23:43;;;;;;;;;;;;;;;20.17;59.37;96175.47;603081;235;68777;-68
2023/10/20 04:26:20;;;;;;;;;;;;;;;20.16;59.91;96180.02;603105;235;64785;-68
2023/10/20 04:28:47;;;;;;;;;;;;;;;20.15;60.08;96183.75;603059;235;68853;-68
2023/10/20 04:53:30;;;;;;;;;;;;;;;20.14;59.35;96173.38;603099;235;68551;-69
2023/10/20 04:58:24;;;;;;;;;;;;;;;20.12;59.49;96178.98;603048;235;65016;-68
2023/10/20 05:05:40;;;;;;;;;;;;;;;20.14;58.82;96181.38;603099;235;62462;-68
2023/10/20 05:10:43;;;;;;;;;;;;;;;20.13;58.92;96177.11;603061;235;66460;-69
2023/10/20 05:13:11;;;;;;;;;;;;;;;20.14;59.50;96182.17;603076;235;64575;-68
2023/10/20 05:15:40;;;;;;;;;;;;;;;20.13;59.16;96191.27;603077;235;68779;-68
2023/10/20 05:18:17;;;;;;;;;;;;;;;20.13;58.38;96188.59;603063;235;68867;-68
2023/10/20 05:20:37;;;;;;;;;;;;;;;20.14;59.01;96192.05;602989;235;62389;-68
2023/10/20 05:23:05;;;;;;;;;;;;;;;20.14;58.95;96190.17;603065;235;66677;-68
2023/10/20 05:25:33;;;;;;;;;;;;;;;20.15;58.77;96180.30;603064;235;68479;-68
2023/10/20 05:28:01;;;;;;;;;;;;;;;20.14;58.68;96192.05;603066;235;64886;-68
2023/10/20 05:30:28;;;;;;;;;;;;;;;20.14;59.14;96182.17;603039;235;66560;-69
2023/10/20 05:32:56;;;;;;;;;;;;;;;20.14;58.98;96184.84;603093;235;69091;-68
2023/10/20 05:35:23;;;;;;;;;;;;;;;20.14;59.17;96192.84;603082;235;64782;-68
2023/10/20 05:37:51;;;;;;;;;;;;;;;20.15;59.16;96191.75;603037;235;68883;-68
2023/10/20 05:40:18;;;;;;;;;;;;;;;20.14;59.27;96192.84;603087;235;68643;-68
2023/10/20 05:42:46;;;;;;;;;;;;;;;20.15;58.81;96194.42;603080;235;64799;-68
2023/10/20 05:45:17;;;;;;;;;;;;;;;20.14;59.22;96190.17;603074;235;68830;-69
2023/10/20 05:47:42;;;;;;;;;;;;;;;20.14;58.92;96194.72;603014;235;68817;-68
2023/10/20 05:50:10;;;;;;;;;;;;;;;20.14;58.30;96192.84;603059;234;64726;-68
2023/10/20 05:52:39;;;;;;;;;;;;;;;20.13;58.31;96191.27;603037;235;68433;-68
2023/10/20 05:55:07;;;;;;;;;;;;;;;20.14;58.52;96198.18;603037;235;66375;-70
2023/10/20 05:57:35;;;;;;;;;;;;;;;20.14;58.64;96198.18;603063;235;64852;-68
2023/10/20 06:00:03;;;;;;;;;;;;;;;20.14;58.82;96208.84;603055;232;68985;-70
2023/10/20 06:02:33;;;;;;;;;;;;;;;20.14;58.76;96206.18;603139;235;47866;-68
2023/10/20 06:05:00;;;;;;;;;;;;;;;20.15;58.96;96209.64;602926;235;64572;-68
2023/10/20 06:07:28;;;;;;;;;;;;;;;20.14;59.35;96206.18;603037;235;66665;-69
2023/10/20 06:09:56;;;;;;;;;;;;;;;20.13;58.88;96209.94;603103;235;66457;-68
2023/10/20 06:12:23;;;;;;;;;;;;;;;20.15;59.57;96210.42;603088;235;63474;-66
2023/10/20 06:14:51;;;;;;;;;;;;;;;20.14;59.10;96214.19;602459;235;66566;-67
2023/10/20 06:17:19;;;;;;;;;;;;;;;20.13;59.07;96207.27;603494;233;66696;-69
2023/10/20 06:19:47;;;;;;;;;;;;;;;20.14;58.71;96208.06;604026;233;62605;-68
2023/10/20 06:22:14;;;;;;;;;;;;;;;20.14;57.57;96213.39;603845;233;69407;-68
2023/10/20 06:24:43;;;;;;;;;;;;;;;20.13;57.42;96209.94;602748;232;66337;-69
2023/10/20 06:27:11;;;;;;;;;;;;;;;20.13;58.65;96211.78;598784;232;64674;-68
2023/10/20 06:29:46;;;;;;;;;;;;;;;20.13;60.59;96211.78;598716;232;68916;-68
2023/10/20 06:32:23;;;;;;;;;;;;;;;20.13;60.20;96211.78;600088;232;68661;-69
2023/10/20 06:34:43;;;;;;;;;;;;;;;20.12;59.85;96211.00;597149;232;62458;-69
2023/10/20 06:37:18;;;;;;;;;;;;;;;20.12;60.16;96208.33;596309;231;66337;-68
2023/10/20 06:39:40;;;;;;;;;;;;;;;20.12;59.60;96200.33;600515;232;66660;-68
2023/10/20 06:42:09;;;;;;;;;;;;;;;20.12;59.75;96205.66;599820;232;62732;-68
2023/10/20 06:44:36;;;;;;;;;;;;;;;20.13;59.87;96207.27;598456;232;66107;-68
2023/10/20 06:47:04;;;;;;;;;;;;;;;20.11;58.96;96198.75;601139;232;66019;-68
2023/10/20 06:49:33;;;;;;;;;;;;;;;20.12;57.96;96197.66;600981;229;64585;-68
2023/10/20 06:52:03;;;;;;;;;;;;;;;20.12;58.56;96203.00;605328;230;71529;-68
2023/10/20 06:54:29;;;;;;;;;;;;;;;20.12;58.30;96200.33;601666;229;68662;-67
2023/10/20 06:56:57;;;;;;;;;;;;;;;20.12;59.03;96200.33;606877;229;64603;-69
2023/10/20 06:59:24;;;;;;;;;;;;;;;20.13;58.22;96196.59;607253;229;68798;-71
2023/10/20 07:01:56;;;;;;;;;;;;;;;20.13;58.36;96196.59;608351;230;68879;-68
2023/10/20 07:04:21;;;;;;;;;;;;;;;20.13;58.10;96191.27;606977;229;64695;-67
2023/10/20 07:06:51;;;;;;;;;;;;;;;20.14;58.37;96186.72;604155;229;65971;-68
2023/10/20 07:09:18;;;;;;;;;;;;;;;20.13;58.53;96193.11;604911;229;68640;-68
2023/10/20 07:11:46;;;;;;;;;;;;;;;20.14;59.01;96194.72;604608;232;64739;-68
2023/10/20 07:14:14;;;;;;;;;;;;;;;20.14;58.58;96181.38;605401;233;68970;-68
2023/10/20 07:16:41;;;;;;;;;;;;;;;20.13;57.96;96183.27;604663;229;69420;-69
2023/10/20 07:19:09;;;;;;;;;;;;;;;20.13;58.73;96172.59;604769;229;64672;-67
2023/10/20 07:21:36;;;;;;;;;;;;;;;20.13;58.40;96185.93;605275;229;68567;-68
2023/10/20 07:24:04;;;;;;;;;;;;;;;20.14;58.84;96179.50;606551;229;68506;-69
2023/10/20 07:26:32;;;;;;;;;;;;;;;20.14;58.35;96176.84;605287;229;64712;-68
2023/10/20 07:28:59;;;;;;;;;;;;;;;20.14;58.29;96170.72;605996;229;68837;-66
2023/10/20 07:31:27;;;;;;;;;;;;;;;20.14;58.45;96171.50;605261;229;68721;-68
2023/10/20 07:33:56;;;;;;;;;;;;;;;20.14;58.29;96165.38;602900;232;62609;-69
2023/10/20 07:36:23;;;;;;;;;;;;;;;20.14;58.45;96162.71;606236;233;68707;-68
2023/10/20 07:38:51;;;;;;;;;;;;;;;20.14;59.85;96171.50;608768;232;68656;-68
2023/10/20 07:41:18;;;;;;;;;;;;;;;20.14;60.19;96173.38;605264;229;62672;-68
2023/10/20 07:43:46;;;;;;;;;;;;;;;20.13;58.47;96174.44;607009;230;67777;-68
2023/10/20 07:46:16;;;;;;;;;;;;;;;20.15;59.82;96183.75;604765;229;68748;-68
2023/10/20 07:48:44;;;;;;;;;;;;;;;20.15;60.14;96180.30;608071;231;64765;-62
2023/10/20 07:51:12;;;;;;;;;;;;;;;20.15;60.05;96178.41;606315;229;68756;-65
2023/10/20 07:53:39;;;;;;;;;;;;;;;20.16;59.83;96168.53;604951;233;66315;-65
2023/10/20 07:56:07;;;;;;;;;;;;;;;20.16;59.51;96174.69;601977;235;64544;-64
2023/10/20 07:58:34;;;;;;;;;;;;;;;20.16;59.35;96169.35;608126;233;68594;-64
2023/10/20 08:01:02;;;;;;;;;;;;;;;20.16;58.65;96161.34;608972;232;69012;-66
2023/10/20 08:03:29;;;;;;;;;;;;;;;20.16;59.50;96168.53;608937;232;64789;-65
2023/10/20 08:05:56;;;;;;;;;;;;;;;20.16;58.81;96166.69;603964;233;68864;-64
2023/10/20 08:08:24;;;;;;;;;;;;;;;20.17;59.24;96178.14;604500;230;68713;-65
2023/10/20 08:14:13;;;;;;;;;;;;;;;20.17;59.55;96176.27;608850;232;40384;-68
2023/10/20 08:16:41;;;;;;;;;;;;;;;20.18;61.12;96174.38;608493;232;66505;-66
2023/10/20 08:19:08;;;;;;;;;;;;;;;20.17;59.44;96184.27;608879;232;62699;-66
2023/10/20 08:21:36;;;;;;;;;;;;;;;20.17;59.84;96178.93;608857;233;68584;-67
2023/10/20 08:24:05;;;;;;;;;;;;;;;20.17;59.04;96172.81;608792;233;68706;-68
2023/10/20 08:26:32;;;;;;;;;;;;;;;20.17;59.80;96176.27;607974;229;64863;-67
2023/10/20 08:29:00;;;;;;;;;;;;;;;20.17;59.47;96176.27;602980;230;68959;-66
2023/10/20 08:31:28;;;;;;;;;;;;;;;20.17;58.67;96160.26;602021;233;68615;-66
2023/10/20 08:33:57;;;;;;;;;;;;;;;20.18;59.69;96156.50;602191;235;62556;-66
2023/10/20 08:36:24;;;;;;;;;;;;;;;20.18;59.61;96159.16;602182;235;68785;-68
2023/10/20 08:38:52;;;;;;;;;;;;;;;20.19;60.19;96167.98;603346;232;68689;-66
2023/10/20 08:41:26;;;;;;;;;;;;;;;20.20;60.33;96166.11;604904;229;62626;-67
2023/10/20 08:43:51;;;;;;;;;;;;;;;20.17;58.79;96157.59;605037;230;66330;-67
2023/10/20 08:46:19;;;;;;;;;;;;;;;20.19;58.94;96151.98;605141;229;68572;-68
2023/10/20 08:48:48;;;;;;;;;;;;;;;20.18;59.35;96158.38;603971;229;65722;-69
2023/10/20 08:51:16;;;;;;;;;;;;;;;20.20;60.15;96153.56;599662;231;68596;-67
2023/10/20 08:53:44;;;;;;;;;;;;;;;20.20;59.97;96153.56;601310;231;68400;-67
2023/10/20 08:56:12;;;;;;;;;;;;;;;20.20;59.61;96156.23;601846;231;62718;-65
2023/10/20 08:58:40;;;;;;;;;;;;;;;20.20;60.50;96156.23;600741;232;66367;-65
2023/10/20 09:01:07;;;;;;;;;;;;;;;20.21;60.58;96149.01;598713;231;68451;-67
2023/10/20 09:03:39;;;;;;;;;;;;;;;20.21;61.27;96138.34;600986;231;63579;-66
2023/10/20 09:06:08;;;;;;;;;;;;;;;20.21;60.35;96155.13;597973;232;68536;-65
2023/10/20 09:08:37;;;;;;;;;;;;;;;20.20;57.94;96150.10;598465;232;68470;-65
2023/10/20 09:11:08;;;;;;;;;;;;;;;20.20;59.24;96152.77;599025;232;62688;-66
2023/10/20 09:13:37;;;;;;;;;;;;;;;20.21;59.08;96143.67;598333;232;66655;-67
2023/10/20 09:16:08;;;;;;;;;;;;;;;20.19;58.94;96151.98;598303;232;69057;-68
2023/10/20 09:18:49;;;;;;;;;;;;;;;20.20;59.13;96150.89;598812;232;63372;-66
2023/10/20 09:21:18;;;;;;;;;;;;;;;20.20;59.92;96152.77;598960;232;68765;-67
2023/10/20 09:23:59;;;;;;;;;;;;;;;20.20;59.68;96139.43;599169;232;68633;-66
2023/10/20 09:26:27;;;;;;;;;;;;;;;20.20;59.55;96142.09;597822;232;64868;-66
2023/10/20 09:28:56;;;;;;;;;;;;;;;20.19;59.87;96149.31;598549;232;68749;-65
2023/10/20 09:31:24;;;;;;;;;;;;;;;20.20;60.06;96147.44;598632;232;68687;-66
2023/10/20 09:33:52;;;;;;;;;;;;;;;20.18;59.26;96145.83;600592;232;62844;-66
2023/10/20 09:36:20;;;;;;;;;;;;;;;20.20;59.94;96150.10;600282;232;66334;-66
2023/10/20 09:38:54;;;;;;;;;;;;;;;20.19;59.71;96141.31;598707;232;70134;-66
2023/10/20 09:41:23;;;;;;;;;;;;;;;20.21;57.77;96141.01;595973;238;62721;-65
2023/10/20 09:44:00;;;;;;;;;;;;;;;20.24;59.60;96137.77;597669;235;66914;-65
2023/10/20 09:46:29;;;;;;;;;;;;;;;20.23;58.56;96141.52;602697;233;69453;-66
2023/10/20 09:48:58;;;;;;;;;;;;;;;20.23;59.94;96136.19;603305;232;64638;-66
2023/10/20 09:51:27;;;;;;;;;;;;;;;20.23;61.88;96136.97;611014;232;68651;-68
2023/10/20 09:53:56;;;;;;;;;;;;;;;20.23;59.68;96138.85;611034;232;66613;-67
2023/10/20 09:56:24;;;;;;;;;;;;;;;20.21;60.11;96125.78;610982;232;64545;-68
2023/10/20 09:58:53;;;;;;;;;;;;;;;20.21;58.90;96120.45;611017;232;69409;-68
2023/10/20 10:01:21;;;;;;;;;;;;;;;20.22;59.93;96126.61;610936;232;68730;-68
2023/10/20 10:03:50;;;;;;;;;;;;;;;20.21;58.83;96127.67;610999;232;64808;-68
2023/10/20 10:06:19;;;;;;;;;;;;;;;20.21;58.42;96119.66;610712;232;68765;-68
2023/10/20 10:08:46;;;;;;;;;;;;;;;20.21;58.59;96117.78;606416;229;68772;-68
2023/10/20 10:11:21;;;;;;;;;;;;;;;20.23;56.10;96115.63;606805;229;64746;-68
2023/10/20 10:13:57;;;;;;;;;;;;;;;20.25;57.71;96112.69;607389;229;66611;-67
2023/10/20 10:16:25;;;;;;;;;;;;;;;20.23;57.84;96120.97;606850;229;68786;-67
2023/10/20 10:18:56;;;;;;;;;;;;;;;20.23;57.74;96107.63;609129;229;64319;-67
2023/10/20 10:21:29;;;;;;;;;;;;;;;20.22;58.99;96108.72;609582;232;68836;-67
2023/10/20 10:24:14;;;;;;;;;;;;;;;20.22;59.16;96102.59;609561;232;68424;-68
2023/10/20 10:26:52;;;;;;;;;;;;;;;20.23;59.82;96112.96;609521;232;62649;-67
2023/10/20 10:29:38;;;;;;;;;;;;;;;20.23;61.16;96109.51;609356;232;68663;-68
2023/10/20 10:32:13;;;;;;;;;;;;;;;20.22;61.08;96108.72;609560;232;69079;-68
2023/10/20 10:34:41;;;;;;;;;;;;;;;20.21;60.99;96106.33;609503;232;65188;-68
2023/10/20 10:37:09;;;;;;;;;;;;;;;20.20;61.02;96108.20;609528;232;66653;-68
2023/10/20 10:39:37;;;;;;;;;;;;;;;20.21;60.30;96106.33;609438;232;68839;-68
2023/10/20 10:42:05;;;;;;;;;;;;;;;20.20;60.56;96105.54;609548;232;64728;-68
2023/10/20 10:44:34;;;;;;;;;;;;;;;20.20;60.49;96110.88;609470;232;66432;-67
2023/10/20 10:47:03;;;;;;;;;;;;;;;20.20;60.90;96094.87;609511;232;68842;-67
2023/10/20 10:49:32;;;;;;;;;;;;;;;20.21;60.21;96103.66;608818;232;62688;-67
2023/10/20 10:52:09;;;;;;;;;;;;;;;20.21;60.75;96098.33;607284;232;68390;-67
2023/10/20 10:54:32;;;;;;;;;;;;;;;20.21;60.75;96100.99;607226;232;68701;-66
2023/10/20 10:57:00;;;;;;;;;;;;;;;20.21;61.01;96101.78;607356;232;62895;-67
2023/10/20 10:59:28;;;;;;;;;;;;;;;20.20;60.48;96100.20;602687;233;69124;-67
2023/10/20 11:01:56;;;;;;;;;;;;;;;20.21;60.37;96104.45;601315;233;68582;-67
2023/10/20 11:04:24;;;;;;;;;;;;;;;20.21;60.00;96100.99;601276;236;62650;-67
2023/10/20 11:06:51;;;;;;;;;;;;;;;20.20;60.49;96100.20;600642;236;66704;-66
2023/10/20 11:09:20;;;;;;;;;;;;;;;20.22;59.99;96102.59;601235;235;66591;-66
2023/10/20 11:11:52;;;;;;;;;;;;;;;20.21;59.63;96093.77;601283;236;64768;-67
2023/10/20 11:14:20;;;;;;;;;;;;;;;20.22;59.30;96095.38;601158;233;68765;-67
2023/10/20 11:16:48;;;;;;;;;;;;;;;20.23;59.61;96101.50;600958;236;66648;-67
2023/10/20 11:19:17;;;;;;;;;;;;;;;20.22;59.12;96095.38;601278;236;62712;-67
2023/10/20 11:21:45;;;;;;;;;;;;;;;20.23;59.97;96098.84;601176;236;68589;-68
2023/10/20 11:24:14;;;;;;;;;;;;;;;20.22;59.32;96095.38;601316;235;66690;-68
2023/10/20 11:26:42;;;;;;;;;;;;;;;20.21;59.67;96093.77;600840;235;62664;-67
2023/10/20 11:29:10;;;;;;;;;;;;;;;20.22;59.27;96087.38;601234;236;66582;-67
2023/10/20 11:31:38;;;;;;;;;;;;;;;20.22;59.49;96102.59;601327;236;68534;-68
2023/10/20 11:34:05;;;;;;;;;;;;;;;20.22;59.70;96090.05;601279;236;64585;-68
2023/10/20 11:36:34;;;;;;;;;;;;;;;20.24;58.29;96090.53;601245;236;68621;-67
2023/10/20 11:39:01;;;;;;;;;;;;;;;20.25;57.21;96092.13;601370;235;68226;-67
2023/10/20 11:41:29;;;;;;;;;;;;;;;20.25;60.10;96097.47;601209;236;64775;-67
2023/10/20 11:43:56;;;;;;;;;;;;;;;20.31;53.46;96085.64;601277;235;68940;-67
2023/10/20 11:46:24;;;;;;;;;;;;;;;20.34;55.42;96090.39;601240;236;68887;-67
2023/10/20 11:48:51;;;;;;;;;;;;;;;20.36;56.17;96092.79;601493;232;62437;-66
2023/10/20 11:51:19;;;;;;;;;;;;;;;20.36;54.84;96082.91;609004;231;66457;-67
2023/10/20 11:53:46;;;;;;;;;;;;;;;20.39;54.51;96087.66;609020;233;66494;-67
2023/10/20 11:56:15;;;;;;;;;;;;;;;20.41;54.15;96087.38;608973;233;62484;-67
2023/10/20 11:58:42;;;;;;;;;;;;;;;20.45;54.36;96091.05;608947;233;68807;-67
2023/10/20 12:01:11;;;;;;;;;;;;;;;20.48;54.30;96089.67;608986;233;66818;-67
2023/10/20 12:03:38;;;;;;;;;;;;;;;20.50;54.18;96085.63;608990;233;62615;-67
2023/10/20 12:06:06;;;;;;;;;;;;;;;20.51;54.65;96087.20;609093;233;65906;-67
2023/10/20 12:08:34;;;;;;;;;;;;;;;20.53;54.11;96087.75;608977;233;68684;-67
2023/10/20 12:11:02;;;;;;;;;;;;;;;20.55;54.70;96084.80;608933;233;62431;-67
2023/10/20 12:13:30;;;;;;;;;;;;;;;20.55;54.75;96082.14;609016;233;69036;-67
2023/10/20 12:15:57;;;;;;;;;;;;;;;20.57;55.15;96082.62;608675;232;68696;-67
2023/10/20 12:18:25;;;;;;;;;;;;;;;20.58;54.97;96084.22;607785;233;64732;-68
2023/10/20 12:20:52;;;;;;;;;;;;;;;20.59;54.61;96085.80;607925;233;66580;-67
2023/10/20 12:23:20;;;;;;;;;;;;;;;20.59;54.98;96083.91;607920;232;68567;-68
2023/10/20 12:25:47;;;;;;;;;;;;;;;20.60;54.78;96090.07;607937;233;64613;-68
2023/10/20 12:28:16;;;;;;;;;;;;;;;20.61;55.60;96084.42;607985;233;68641;-67
2023/10/20 12:30:47;;;;;;;;;;;;;;;20.61;55.14;96089.77;607863;233;68758;-66
2023/10/20 12:33:14;;;;;;;;;;;;;;;20.63;54.88;96086.03;607915;233;64562;-67
2023/10/20 12:35:43;;;;;;;;;;;;;;;20.63;55.22;96092.16;607745;233;68664;-67
2023/10/20 12:38:12;;;;;;;;;;;;;;;20.64;55.03;96087.60;607979;233;66453;-67
2023/10/20 12:40:39;;;;;;;;;;;;;;;20.65;55.95;96094.52;607981;233;63595;-66
2023/10/20 12:43:12;;;;;;;;;;;;;;;20.65;55.22;96081.17;608026;233;66435;-66
2023/10/20 12:45:39;;;;;;;;;;;;;;;20.66;55.26;96090.78;607798;232;66559;-66
2023/10/20 12:48:07;;;;;;;;;;;;;;;20.66;55.15;96090.78;607831;233;62726;-66
2023/10/20 12:50:36;;;;;;;;;;;;;;;20.67;55.84;96089.69;607996;233;66489;-66
2023/10/20 12:53:04;;;;;;;;;;;;;;;20.67;55.32;96093.14;607521;233;68020;-66
2023/10/20 12:55:32;;;;;;;;;;;;;;;20.67;56.09;96101.16;607928;233;62749;-68
2023/10/20 12:57:59;;;;;;;;;;;;;;;20.68;56.60;96100.09;607879;233;66317;-66
2023/10/20 13:00:27;;;;;;;;;;;;;;;20.68;56.63;96104.61;607773;233;69552;-67
2023/10/20 13:02:54;;;;;;;;;;;;;;;20.69;56.56;96100.88;607868;233;64440;-67
2023/10/20 13:05:22;;;;;;;;;;;;;;;20.69;56.59;96107.00;607823;233;68658;-67
2023/10/20 13:07:54;;;;;;;;;;;;;;;20.70;57.23;96105.13;607948;233;65900;-65
2023/10/20 13:10:20;;;;;;;;;;;;;;;20.71;57.46;96109.39;607205;233;62787;-66
2023/10/20 13:12:48;;;;;;;;;;;;;;;20.71;57.57;96110.19;607228;233;68540;-67
2023/10/20 13:15:15;;;;;;;;;;;;;;;20.73;53.94;96104.53;607838;233;68682;-65
2023/10/20 13:17:43;;;;;;;;;;;;;;;20.72;55.41;96110.97;607847;233;63337;-69
2023/10/20 13:20:13;;;;;;;;;;;;;;;20.69;56.79;96112.34;607890;233;66324;-68
2023/10/20 13:22:40;;;;;;;;;;;;;;;20.66;56.34;96106.80;607648;233;68812;-68
2023/10/20 13:25:09;;;;;;;;;;;;;;;20.64;57.06;96111.63;607903;233;62363;-68
2023/10/20 13:27:37;;;;;;;;;;;;;;;20.59;56.51;96113.28;607787;233;69064;-68
2023/10/20 13:30:04;;;;;;;;;;;;;;;20.59;56.69;96117.83;607823;233;68591;-69